Time,TemperatureF,DewpointF,PressureIn,WindDirection,WindDirectionDegrees,WindSpeedMPH,WindSpeedGustMPH,Humidity,HourlyPrecipIn,Conditions,Clouds,dailyrainin,SoftwareType,DateUTC
2013-02-18 00:00:00,46.7,37.4,30.27,NW,306,11.5,11.5,70,0.00,CLR,OVC,0.00,WeatherDisplay:10.37,2013-02-18 05:00:00,
2013-02-18 00:05:00,46.7,37.8,30.27,WNW,299,11.5,11.5,71,0.00,CLR,OVC,0.00,WeatherDisplay:10.37,2013-02-18 05:05:00,
2013-02-18 00:10:00,46.7,37.8,30.27,NW,306,15.0,15.0,71,0.00,CLR,OVC,0.00,WeatherDisplay:10.37,2013-02-18 05:10:00,
2013-02-18 00:15:00,46.7,37.8,30.27,NW,314,15.0,15.0,71,0.00,CLR,OVC,0.00,WeatherDisplay:10.37,2013-02-18 05:15:00,
2013-02-18 00:20:00,46.7,37.8,30.27,WNW,302,11.5,11.5,71,0.00,CLR,OVC,0.00,WeatherDisplay:10.37,2013-02-18 05:20:00,
2013-02-18 00:25:00,46.7,37.8,30.27,NW,313,11.5,11.5,71,0.00,CLR,OVC,0.00,WeatherDisplay:10.37,2013-02-18 05:25:00,
2013-02-18 00:30:00,46.7,37.8,30.27,WNW,301,15.0,15.0,71,0.00,CLR,OVC,0.00,WeatherDisplay:10.37,2013-02-18 05:30:00,
2013-02-18 00:35:00,46.7,37.8,30.27,NW,306,12.7,12.7,71,0.00,CLR,OVC,0.00,WeatherDisplay:10.37,2013-02-18 05:35:00,
2013-02-18 00:40:00,46.7,37.8,30.27,NW,314,11.5,11.5,71,0.00,CLR,OVC,0.00,WeatherDisplay:10.37,2013-02-18 05:40:00,
2013-02-18 00:45:00,46.5,37.6,30.27,WNW,302,10.4,10.4,71,0.00,CLR,OVC,0.00,WeatherDisplay:10.37,2013-02-18 05:45:00,
2013-02-18 00:50:00,46.5,37.6,30.27,NNW,330,12.7,12.7,71,0.00,CLR,OVC,0.00,WeatherDisplay:10.37,2013-02-18 05:50:00,
2013-02-18 00:55:00,46.5,37.6,30.27,WNW,302,16.1,16.1,71,0.00,CLR,OVC,0.00,WeatherDisplay:10.37,2013-02-18 05:55:00,
2013-02-18 01:00:00,46.5,37.6,30.27,NW,319,11.5,11.5,71,0.00,CLR,OVC,0.00,WeatherDisplay:10.37,2013-02-18 06:00:00,
2013-02-18 01:05:00,46.4,37.5,30.27,WNW,294,9.0,9.0,71,0.00,CLR,OVC,0.00,WeatherDisplay:10.37,2013-02-18 06:05:00,
2013-02-18 01:10:00,46.4,37.5,30.27,WNW,301,12.7,12.7,71,0.00,CLR,OVC,0.00,WeatherDisplay:10.37,2013-02-18 06:10:00,
2013-02-18 01:15:00,46.4,37.5,30.26,WNW,300,13.8,13.8,71,0.00,CLR,OVC,0.00,WeatherDisplay:10.37,2013-02-18 06:15:00,
2013-02-18 01:20:00,46.4,37.5,30.26,NW,308,11.5,11.5,71,0.00,CLR,OVC,0.00,WeatherDisplay:10.37,2013-02-18 06:20:00,
2013-02-18 01:25:00,46.2,37.3,30.26,NW,316,16.1,16.1,71,0.00,CLR,OVC,0.00,WeatherDisplay:10.37,2013-02-18 06:25:00,
2013-02-18 01:30:00,46.2,37.3,30.26,NW,307,12.7,12.7,71,0.00,CLR,OVC,0.00,WeatherDisplay:10.37,2013-02-18 06:30:00,
2013-02-18 01:35:00,46.2,37.0,30.26,WNW,284,12.0,12.0,70,0.00,CLR,OVC,0.00,WeatherDisplay:10.37,2013-02-18 06:35:00,
2013-02-18 01:40:00,46.2,37.0,30.26,NW,314,11.5,11.5,70,0.00,CLR,OVC,0.00,WeatherDisplay:10.37,2013-02-18 06:40:00,
2013-02-18 01:45:00,46.2,36.6,30.26,WNW,303,13.8,13.8,69,0.00,CLR,OVC,0.00,WeatherDisplay:10.37,2013-02-18 06:45:00,
2013-02-18 01:50:00,46.2,36.2,30.26,NW,307,13.8,13.8,68,0.00,CLR,OVC,0.00,WeatherDisplay:10.37,2013-02-18 06:50:00,
2013-02-18 01:55:00,46.1,36.1,30.26,WNW,301,13.8,13.8,68,0.00,CLR,OVC,0.00,WeatherDisplay:10.37,2013-02-18 06:55:00,
2013-02-18 02:00:00,46.1,35.7,30.26,NW,307,13.8,13.8,67,0.00,CLR,OVC,0.00,WeatherDisplay:10.37,2013-02-18 07:00:00,
2013-02-18 02:05:00,46.1,35.7,30.26,NNW,331,12.7,12.7,67,0.00,CLR,OVC,0.00,WeatherDisplay:10.37,2013-02-18 07:05:00,
2013-02-18 02:10:00,46.1,35.4,30.26,WNW,294,12.7,12.7,66,0.00,CLR,OVC,0.00,WeatherDisplay:10.37,2013-02-18 07:10:00,
2013-02-18 02:15:00,46.2,35.5,30.25,NW,319,10.4,10.4,66,0.00,CLR,OVC,0.00,WeatherDisplay:10.37,2013-02-18 07:15:00,
2013-02-18 02:20:00,46.2,35.5,30.25,NW,309,9.2,9.2,66,0.00,CLR,OVC,0.00,WeatherDisplay:10.37,2013-02-18 07:20:00,
2013-02-18 02:25:00,46.1,35.4,30.25,NW,318,11.5,11.5,66,0.00,CLR,OVC,0.00,WeatherDisplay:10.37,2013-02-18 07:25:00,
2013-02-18 02:30:00,46.2,35.1,30.25,NW,310,12.7,12.7,65,0.00,CLR,OVC,0.00,WeatherDisplay:10.37,2013-02-18 07:30:00,
2013-02-18 02:35:00,46.2,35.1,30.25,NW,321,7.0,7.0,65,0.00,CLR,OVC,0.00,WeatherDisplay:10.37,2013-02-18 07:35:00,
2013-02-18 02:40:00,46.2,35.1,30.25,NW,326,12.7,12.7,65,0.00,CLR,OVC,0.00,WeatherDisplay:10.37,2013-02-18 07:40:00,
2013-02-18 02:45:00,46.2,35.1,30.24,NW,325,5.8,5.8,65,0.00,CLR,OVC,0.00,WeatherDisplay:10.37,2013-02-18 07:45:00,
2013-02-18 02:51:00,46.4,35.3,30.24,NW,315,11.5,11.5,65,0.00,CLR,OVC,0.00,WeatherDisplay:10.37,2013-02-18 07:51:00,
2013-02-18 02:56:00,46.5,35.4,30.24,NW,309,19.6,19.6,65,0.00,CLR,OVC,0.00,WeatherDisplay:10.37,2013-02-18 07:56:00,
2013-02-18 03:01:00,46.7,35.2,30.24,NW,315,14.0,14.0,64,0.00,CLR,OVC,0.00,WeatherDisplay:10.37,2013-02-18 08:01:00,
2013-02-18 03:06:00,47.1,34.7,30.24,NW,306,15.0,15.0,62,0.00,CLR,OVC,0.00,WeatherDisplay:10.37,2013-02-18 08:06:00,
2013-02-18 03:11:00,47.1,34.7,30.24,WNW,296,14.0,14.0,62,0.00,CLR,OVC,0.00,WeatherDisplay:10.37,2013-02-18 08:11:00,
2013-02-18 03:16:00,47.3,34.9,30.23,NNW,345,13.8,13.8,62,0.00,CLR,OVC,0.00,WeatherDisplay:10.37,2013-02-18 08:16:00,
2013-02-18 03:21:00,47.3,34.5,30.23,NW,311,16.1,16.1,61,0.00,CLR,OVC,0.00,WeatherDisplay:10.37,2013-02-18 08:21:00,
2013-02-18 03:26:00,47.3,34.5,30.23,NW,324,19.6,19.6,61,0.00,CLR,OVC,0.00,WeatherDisplay:10.37,2013-02-18 08:26:00,
2013-02-18 03:31:00,47.3,34.1,30.23,NW,317,19.6,19.6,60,0.00,CLR,OVC,0.00,WeatherDisplay:10.37,2013-02-18 08:31:00,
2013-02-18 03:36:00,47.3,34.1,30.23,NNW,327,13.0,13.0,60,0.00,CLR,OVC,0.00,WeatherDisplay:10.37,2013-02-18 08:36:00,
2013-02-18 03:41:00,47.3,34.1,30.23,NNW,327,19.0,19.0,60,0.00,CLR,OVC,0.00,WeatherDisplay:10.37,2013-02-18 08:41:00,
2013-02-18 03:46:00,47.3,34.1,30.23,NW,316,17.3,17.3,60,0.00,CLR,OVC,0.00,WeatherDisplay:10.37,2013-02-18 08:46:00,
2013-02-18 03:51:00,47.1,34.3,30.23,WNW,295,17.3,17.3,61,0.00,CLR,OVC,0.00,WeatherDisplay:10.37,2013-02-18 08:51:00,
2013-02-18 03:56:00,47.1,34.7,30.23,NNW,329,17.3,17.3,62,0.00,CLR,OVC,0.00,WeatherDisplay:10.37,2013-02-18 08:56:00,
2013-02-18 04:01:00,47.1,34.7,30.23,NNW,336,19.6,19.6,62,0.00,,OVC,0.00,WeatherDisplay:10.37,2013-02-18 09:01:00,
2013-02-18 04:06:00,47.1,35.1,30.23,NNW,339,14.0,14.0,63,0.00,,OVC,0.00,WeatherDisplay:10.37,2013-02-18 09:06:00,
2013-02-18 04:11:00,47.1,35.1,30.23,NW,307,16.1,16.1,63,0.00,,OVC,0.00,WeatherDisplay:10.37,2013-02-18 09:11:00,
2013-02-18 04:16:00,47.0,35.4,30.23,NNW,329,13.8,13.8,64,0.00,,OVC,0.00,WeatherDisplay:10.37,2013-02-18 09:16:00,
2013-02-18 04:21:00,47.0,35.4,30.23,NW,326,15.0,15.0,64,0.00,,OVC,0.00,WeatherDisplay:10.37,2013-02-18 09:21:00,
2013-02-18 04:26:00,46.8,35.3,30.23,NNW,332,11.5,11.5,64,0.00,,OVC,0.00,WeatherDisplay:10.37,2013-02-18 09:26:00,
2013-02-18 04:31:00,46.8,34.9,30.23,NW,311,15.0,15.0,63,0.00,,OVC,0.00,WeatherDisplay:10.37,2013-02-18 09:31:00,
2013-02-18 04:36:00,47.0,35.0,30.23,NNW,346,16.1,16.1,63,0.00,,OVC,0.00,WeatherDisplay:10.37,2013-02-18 09:36:00,
2013-02-18 04:41:00,46.8,34.5,30.23,NNW,342,14.0,14.0,62,0.00,,OVC,0.00,WeatherDisplay:10.37,2013-02-18 09:41:00,
2013-02-18 04:46:00,46.8,34.5,30.23,NW,324,8.1,8.1,62,0.00,,OVC,0.00,WeatherDisplay:10.37,2013-02-18 09:46:00,
2013-02-18 04:51:00,46.8,34.0,30.23,NW,325,15.0,15.0,61,0.00,,OVC,0.00,WeatherDisplay:10.37,2013-02-18 09:51:00,
2013-02-18 04:56:00,46.8,33.6,30.23,NNW,328,16.1,16.1,60,0.00,,OVC,0.00,WeatherDisplay:10.37,2013-02-18 09:56:00,
2013-02-18 05:01:00,46.8,33.2,30.24,NNW,336,15.0,15.0,59,0.00,CLR,OVC,0.00,WeatherDisplay:10.37,2013-02-18 10:01:00,
2013-02-18 05:06:00,46.8,33.2,30.24,NNW,336,13.8,13.8,59,0.00,CLR,OVC,0.00,WeatherDisplay:10.37,2013-02-18 10:06:00,
2013-02-18 05:11:00,46.8,33.2,30.24,NNW,337,11.5,11.5,59,0.00,CLR,OVC,0.00,WeatherDisplay:10.37,2013-02-18 10:11:00,
2013-02-18 05:16:00,46.7,33.1,30.24,NNE,22,15.0,15.0,59,0.00,CLR,OVC,0.00,WeatherDisplay:10.37,2013-02-18 10:16:00,
2013-02-18 05:21:00,46.7,33.1,30.24,NNW,329,11.5,11.5,59,0.00,CLR,OVC,0.00,WeatherDisplay:10.37,2013-02-18 10:21:00,
2013-02-18 05:26:00,46.7,32.7,30.24,NNW,343,15.0,15.0,58,0.00,CLR,OVC,0.00,WeatherDisplay:10.37,2013-02-18 10:26:00,
2013-02-18 05:31:00,46.7,32.7,30.24,WNW,296,15.0,15.0,58,0.00,CLR,OVC,0.00,WeatherDisplay:10.37,2013-02-18 10:31:00,
2013-02-18 05:36:00,46.5,32.9,30.24,NW,318,12.7,12.7,59,0.00,CLR,OVC,0.00,WeatherDisplay:10.37,2013-02-18 10:36:00,
2013-02-18 05:41:00,46.5,33.4,30.24,NNW,334,8.1,8.1,60,0.00,CLR,OVC,0.00,WeatherDisplay:10.37,2013-02-18 10:41:00,
2013-02-18 05:46:00,46.4,32.8,30.24,NW,326,16.1,16.1,59,0.00,CLR,OVC,0.00,WeatherDisplay:10.37,2013-02-18 10:46:00,
2013-02-18 05:51:00,46.4,32.8,30.24,North,350,15.0,15.0,59,0.00,CLR,OVC,0.00,WeatherDisplay:10.37,2013-02-18 10:51:00,
2013-02-18 05:56:00,46.4,32.8,30.24,NW,319,11.5,11.5,59,0.00,CLR,OVC,0.00,WeatherDisplay:10.37,2013-02-18 10:56:00,
2013-02-18 06:01:00,46.4,33.3,30.24,NW,326,10.0,10.0,60,0.00,CLR,OVC,0.00,WeatherDisplay:10.37,2013-02-18 11:01:00,
2013-02-18 06:06:00,46.4,32.8,30.24,North,355,14.0,14.0,59,0.00,CLR,OVC,0.00,WeatherDisplay:10.37,2013-02-18 11:06:00,
2013-02-18 06:11:00,46.4,32.8,30.24,NW,322,17.3,17.3,59,0.00,CLR,OVC,0.00,WeatherDisplay:10.37,2013-02-18 11:11:00,
2013-02-18 06:17:00,46.4,32.8,30.24,NW,325,13.8,13.8,59,0.00,CLR,OVC,0.00,WeatherDisplay:10.37,2013-02-18 11:17:00,
2013-02-18 06:22:00,46.4,32.8,30.24,NW,322,15.0,15.0,59,0.00,CLR,OVC,0.00,WeatherDisplay:10.37,2013-02-18 11:22:00,
2013-02-18 06:27:00,46.4,32.8,30.24,NNW,331,11.0,11.0,59,0.00,CLR,OVC,0.00,WeatherDisplay:10.37,2013-02-18 11:27:00,
2013-02-18 06:32:00,46.4,33.3,30.24,NW,311,16.1,16.1,60,0.00,CLR,OVC,0.00,WeatherDisplay:10.37,2013-02-18 11:32:00,
2013-02-18 06:37:00,46.4,32.8,30.24,NNW,333,18.4,18.4,59,0.00,CLR,OVC,0.00,WeatherDisplay:10.37,2013-02-18 11:37:00,
2013-02-18 06:42:00,46.4,32.8,30.24,NNW,340,10.0,10.0,59,0.00,CLR,OVC,0.00,WeatherDisplay:10.37,2013-02-18 11:42:00,
2013-02-18 06:47:00,46.4,32.8,30.25,NW,319,10.4,10.4,59,0.00,CLR,OVC,0.00,WeatherDisplay:10.37,2013-02-18 11:47:00,
2013-02-18 06:52:00,46.2,33.1,30.25,NW,323,9.2,9.2,60,0.00,CLR,OVC,0.00,WeatherDisplay:10.37,2013-02-18 11:52:00,
2013-02-18 06:57:00,46.1,33.0,30.25,NNW,333,10.4,10.4,60,0.00,CLR,OVC,0.00,WeatherDisplay:10.37,2013-02-18 11:57:00,
2013-02-18 07:02:00,46.1,33.4,30.25,NW,321,14.0,14.0,61,0.00,CLR,OVC,0.00,WeatherDisplay:10.37,2013-02-18 12:02:00,
2013-02-18 07:07:00,46.1,33.4,30.25,NW,321,11.5,11.5,61,0.00,CLR,OVC,0.00,WeatherDisplay:10.37,2013-02-18 12:07:00,
2013-02-18 07:12:00,46.0,33.7,30.25,NW,324,11.5,11.5,62,0.00,CLR,OVC,0.00,WeatherDisplay:10.37,2013-02-18 12:12:00,
2013-02-18 07:17:00,46.1,33.8,30.25,NNW,341,17.3,17.3,62,0.00,CLR,OVC,0.00,WeatherDisplay:10.37,2013-02-18 12:17:00,
2013-02-18 07:22:00,46.1,34.2,30.25,NW,325,11.5,11.5,63,0.00,CLR,OVC,0.00,WeatherDisplay:10.37,2013-02-18 12:22:00,
2013-02-18 07:27:00,46.1,34.2,30.25,NNW,336,10.4,10.4,63,0.00,CLR,OVC,0.00,WeatherDisplay:10.37,2013-02-18 12:27:00,
2013-02-18 07:32:00,46.4,34.9,30.26,NW,323,5.8,6.1,64,0.00,CLR,OVC,0.00,WeatherDisplay:10.37,2013-02-18 12:32:00,
2013-02-18 07:37:00,46.7,34.8,30.26,NNW,327,13.8,13.8,63,0.00,CLR,OVC,0.00,WeatherDisplay:10.37,2013-02-18 12:37:00,
2013-02-18 07:42:00,47.1,35.1,30.26,NW,306,17.3,17.3,63,0.00,CLR,OVC,0.00,WeatherDisplay:10.37,2013-02-18 12:42:00,
2013-02-18 07:47:00,47.6,35.2,30.26,NW,325,15.0,15.0,62,0.00,CLR,OVC,0.00,WeatherDisplay:10.37,2013-02-18 12:47:00,
2013-02-18 07:52:00,47.9,35.5,30.26,NNW,345,19.6,19.6,62,0.00,CLR,OVC,0.00,WeatherDisplay:10.37,2013-02-18 12:52:00,
2013-02-18 07:57:00,48.3,35.9,30.26,NNW,347,12.7,12.7,62,0.00,CLR,OVC,0.00,WeatherDisplay:10.37,2013-02-18 12:57:00,
2013-02-18 08:02:00,48.6,36.2,30.26,NNW,329,11.5,11.5,62,0.00,,OVC,0.00,WeatherDisplay:10.37,2013-02-18 13:02:00,
2013-02-18 08:07:00,49.1,37.0,30.26,NW,324,16.0,16.0,63,0.00,,OVC,0.00,WeatherDisplay:10.37,2013-02-18 13:07:00,
2013-02-18 08:12:00,49.5,36.6,30.26,NW,313,11.5,11.5,61,0.00,,OVC,0.00,WeatherDisplay:10.37,2013-02-18 13:12:00,
2013-02-18 08:17:00,49.8,37.3,30.26,North,350,16.0,16.0,62,0.00,,OVC,0.00,WeatherDisplay:10.37,2013-02-18 13:17:00,
2013-02-18 08:23:00,50.4,37.4,30.26,NNW,331,16.1,16.1,61,0.00,,OVC,0.00,WeatherDisplay:10.37,2013-02-18 13:23:00,
2013-02-18 08:28:00,50.8,37.8,30.26,North,360,17.3,17.3,61,0.00,,OVC,0.00,WeatherDisplay:10.37,2013-02-18 13:28:00,
2013-02-18 08:33:00,51.4,38.4,30.26,NNW,347,20.7,20.7,61,0.00,,OVC,0.00,WeatherDisplay:10.37,2013-02-18 13:33:00,
2013-02-18 08:38:00,51.7,38.7,30.26,North,360,17.3,17.3,61,0.00,,OVC,0.00,WeatherDisplay:10.37,2013-02-18 13:38:00,
2013-02-18 08:43:00,52.3,39.2,30.26,NNW,342,11.5,11.5,61,0.00,,OVC,0.00,WeatherDisplay:10.37,2013-02-18 13:43:00,
2013-02-18 08:48:00,52.6,39.5,30.27,North,5,11.5,11.5,61,0.00,,OVC,0.00,WeatherDisplay:10.37,2013-02-18 13:48:00,
2013-02-18 08:53:00,53.3,40.2,30.27,North,350,11.0,11.0,61,0.00,,OVC,0.00,WeatherDisplay:10.37,2013-02-18 13:53:00,
2013-02-18 08:58:00,53.9,40.3,30.27,NW,326,14.0,14.0,60,0.00,,OVC,0.00,WeatherDisplay:10.37,2013-02-18 13:58:00,
2013-02-18 09:03:00,54.4,40.8,30.27,North,355,1.2,1.2,60,0.00,CLR,OVC,0.00,WeatherDisplay:10.37,2013-02-18 14:03:00,
2013-02-18 09:08:00,54.7,41.1,30.27,North,360,2.0,2.0,60,0.00,CLR,OVC,0.00,WeatherDisplay:10.37,2013-02-18 14:08:00,
2013-02-18 09:13:00,55.3,41.6,30.27,NW,325,3.5,3.5,60,0.00,CLR,OVC,0.00,WeatherDisplay:10.37,2013-02-18 14:13:00,
2013-02-18 09:18:00,56.0,41.9,30.27,NNE,33,13.8,13.8,59,0.00,CLR,OVC,0.00,WeatherDisplay:10.37,2013-02-18 14:18:00,
2013-02-18 09:23:00,56.6,42.0,30.27,NNE,32,11.5,11.5,58,0.00,CLR,OVC,0.00,WeatherDisplay:10.37,2013-02-18 14:23:00,
2013-02-18 09:28:00,56.9,41.8,30.27,NNE,13,11.5,11.5,57,0.00,CLR,OVC,0.00,WeatherDisplay:10.37,2013-02-18 14:28:00,
2013-02-18 09:33:00,56.6,42.0,30.27,NNE,26,3.5,3.5,58,0.00,CLR,OVC,0.00,WeatherDisplay:10.37,2013-02-18 14:33:00,
2013-02-18 09:38:00,56.7,42.5,30.27,NNE,28,1.2,0.0,59,0.00,CLR,OVC,0.00,WeatherDisplay:10.37,2013-02-18 14:38:00,
2013-02-18 09:43:00,57.3,43.1,30.27,NE,37,0.0,0.0,59,0.00,CLR,OVC,0.00,WeatherDisplay:10.37,2013-02-18 14:43:00,
2013-02-18 09:48:00,58.6,43.4,30.27,NE,44,2.3,2.3,57,0.00,CLR,OVC,0.00,WeatherDisplay:10.37,2013-02-18 14:48:00,
2013-02-18 09:53:00,59.2,44.0,30.27,North,5,3.5,3.5,57,0.00,CLR,OVC,0.00,WeatherDisplay:10.37,2013-02-18 14:53:00,
2013-02-18 09:58:00,59.9,45.1,30.28,NE,52,3.0,3.0,58,0.00,CLR,OVC,0.00,WeatherDisplay:10.37,2013-02-18 14:58:00,
2013-02-18 10:03:00,60.4,44.2,30.28,NNE,21,3.0,3.0,55,0.00,,OVC,0.00,WeatherDisplay:10.37,2013-02-18 15:03:00,
2013-02-18 10:08:00,60.9,45.6,30.28,North,5,4.0,4.0,57,0.00,,OVC,0.00,WeatherDisplay:10.37,2013-02-18 15:08:00,
2013-02-18 10:14:00,62.0,45.6,30.28,NE,48,17.0,17.0,55,0.00,,OVC,0.00,WeatherDisplay:10.37,2013-02-18 15:14:00,
2013-02-18 10:19:00,63.2,45.3,30.28,East,82,13.8,13.8,52,0.00,,OVC,0.00,WeatherDisplay:10.37,2013-02-18 15:19:00,
2013-02-18 10:24:00,64.2,45.2,30.28,East,86,15.0,15.0,50,0.00,,OVC,0.00,WeatherDisplay:10.37,2013-02-18 15:24:00,
2013-02-18 10:29:00,64.7,45.1,30.28,ESE,113,18.4,18.4,49,0.00,,OVC,0.00,WeatherDisplay:10.37,2013-02-18 15:29:00,
2013-02-18 10:34:00,64.7,44.5,30.28,ENE,74,22.0,22.0,48,0.00,,OVC,0.00,WeatherDisplay:10.37,2013-02-18 15:34:00,
2013-02-18 10:39:00,64.8,45.2,30.28,ENE,64,19.6,19.6,49,0.00,,OVC,0.00,WeatherDisplay:10.37,2013-02-18 15:39:00,
2013-02-18 10:44:00,64.8,45.2,30.28,ENE,62,20.7,20.7,49,0.00,,OVC,0.00,WeatherDisplay:10.37,2013-02-18 15:44:00,
2013-02-18 10:49:00,65.5,45.8,30.28,ENE,67,32.2,32.2,49,0.00,,OVC,0.00,WeatherDisplay:10.37,2013-02-18 15:49:00,
2013-02-18 10:54:00,65.2,46.1,30.28,East,88,25.3,25.3,50,0.00,,OVC,0.00,WeatherDisplay:10.37,2013-02-18 15:54:00,
2013-02-18 10:59:00,64.8,45.7,30.29,East,82,25.3,25.3,50,0.00,,OVC,0.00,WeatherDisplay:10.37,2013-02-18 15:59:00,
2013-02-18 11:04:00,65.3,45.6,30.29,NE,38,8.1,8.1,49,0.00,,OVC,0.00,WeatherDisplay:10.37,2013-02-18 16:04:00,
2013-02-18 11:09:00,65.6,46.5,30.29,East,85,27.6,27.6,50,0.00,,OVC,0.00,WeatherDisplay:10.37,2013-02-18 16:09:00,
2013-02-18 11:14:00,65.2,46.1,30.29,East,86,35.7,35.7,50,0.00,,OVC,0.00,WeatherDisplay:10.37,2013-02-18 16:14:00,
2013-02-18 11:19:00,65.0,46.9,30.29,NE,49,23.0,23.0,52,0.00,,OVC,0.00,WeatherDisplay:10.37,2013-02-18 16:19:00,
2013-02-18 11:24:00,65.5,46.4,30.29,ENE,75,26.0,26.0,50,0.00,,OVC,0.00,WeatherDisplay:10.37,2013-02-18 16:24:00,
2013-02-18 11:29:00,65.2,46.6,30.28,ENE,74,29.9,29.9,51,0.00,,OVC,0.00,WeatherDisplay:10.37,2013-02-18 16:29:00,
2013-02-18 11:34:00,65.2,46.6,30.28,NE,46,3.5,3.5,51,0.00,,OVC,0.00,WeatherDisplay:10.37,2013-02-18 16:34:00,
2013-02-18 11:39:00,65.5,46.9,30.28,ENE,57,18.4,18.4,51,0.00,,OVC,0.00,WeatherDisplay:10.37,2013-02-18 16:39:00,
2013-02-18 11:44:00,65.8,47.2,30.28,SE,137,11.5,11.5,51,0.00,,OVC,0.00,WeatherDisplay:10.37,2013-02-18 16:44:00,
2013-02-18 11:50:00,65.6,45.9,30.28,NE,53,25.3,25.3,49,0.00,,OVC,0.00,WeatherDisplay:10.37,2013-02-18 16:50:00,
2013-02-18 11:55:00,65.5,45.8,30.28,East,83,23.0,23.0,49,0.00,,OVC,0.00,WeatherDisplay:10.37,2013-02-18 16:55:00,
2013-02-18 12:00:00,65.5,45.8,30.27,East,81,31.1,31.1,49,0.00,,OVC,0.00,WeatherDisplay:10.37,2013-02-18 17:00:00,
2013-02-18 12:05:00,66.0,46.3,30.27,ENE,74,2.3,2.3,49,0.00,,OVC,0.00,WeatherDisplay:10.37,2013-02-18 17:05:00,
2013-02-18 12:10:00,66.3,44.9,30.27,SE,136,10.4,10.4,46,0.00,,OVC,0.00,WeatherDisplay:10.37,2013-02-18 17:10:00,
2013-02-18 12:15:00,66.6,45.2,30.27,ENE,67,18.4,18.4,46,0.00,,OVC,0.00,WeatherDisplay:10.37,2013-02-18 17:15:00,
2013-02-18 12:20:00,66.4,44.4,30.27,NE,52,27.6,27.6,45,0.00,,OVC,0.00,WeatherDisplay:10.37,2013-02-18 17:20:00,
2013-02-18 12:25:00,66.4,45.5,30.27,NE,44,16.1,16.1,47,0.00,,OVC,0.00,WeatherDisplay:10.37,2013-02-18 17:25:00,
2013-02-18 12:30:00,66.9,44.9,30.27,ENE,71,15.0,15.0,45,0.00,,OVC,0.00,WeatherDisplay:10.37,2013-02-18 17:30:00,
2013-02-18 12:35:00,66.9,44.9,30.27,ENE,76,3.5,3.5,45,0.00,,OVC,0.00,WeatherDisplay:10.37,2013-02-18 17:35:00,
2013-02-18 12:40:00,66.8,45.3,30.27,East,101,3.5,3.5,46,0.00,,OVC,0.00,WeatherDisplay:10.37,2013-02-18 17:40:00,
2013-02-18 12:45:00,67.8,46.3,30.26,ENE,67,5.8,5.8,46,0.00,,OVC,0.00,WeatherDisplay:10.37,2013-02-18 17:45:00,
2013-02-18 12:50:00,68.4,46.8,30.26,SSE,148,3.5,3.5,46,0.00,,OVC,0.00,WeatherDisplay:10.37,2013-02-18 17:50:00,
2013-02-18 12:55:00,68.1,45.9,30.26,East,88,16.1,16.1,45,0.00,,OVC,0.00,WeatherDisplay:10.37,2013-02-18 17:55:00,
2013-02-18 13:00:00,67.8,46.3,30.26,East,80,9.2,9.2,46,0.00,,OVC,0.00,WeatherDisplay:10.37,2013-02-18 18:00:00,
2013-02-18 13:05:00,67.6,46.6,30.26,SSE,166,6.9,0.0,47,0.00,,OVC,0.00,WeatherDisplay:10.37,2013-02-18 18:05:00,
2013-02-18 13:10:00,67.9,48.0,30.26,ENE,67,21.0,21.0,49,0.00,,OVC,0.00,WeatherDisplay:10.37,2013-02-18 18:10:00,
2013-02-18 13:15:00,67.8,47.4,30.25,ENE,69,5.8,5.8,48,0.00,,OVC,0.00,WeatherDisplay:10.37,2013-02-18 18:15:00,
2013-02-18 13:20:00,67.9,48.0,30.25,East,82,13.8,13.8,49,0.00,,OVC,0.00,WeatherDisplay:10.37,2013-02-18 18:20:00,
2013-02-18 13:25:00,67.4,47.6,30.25,ENE,57,34.5,34.5,49,0.00,,OVC,0.00,WeatherDisplay:10.37,2013-02-18 18:25:00,
2013-02-18 13:31:00,67.1,47.8,30.24,NE,50,34.5,34.5,50,0.00,,OVC,0.00,WeatherDisplay:10.37,2013-02-18 18:31:00,
2013-02-18 13:36:00,66.8,47.6,30.24,NE,55,29.9,29.9,50,0.00,,OVC,0.00,WeatherDisplay:10.37,2013-02-18 18:36:00,
2013-02-18 13:41:00,66.4,47.7,30.24,NE,55,16.0,16.0,51,0.00,,OVC,0.00,WeatherDisplay:10.37,2013-02-18 18:41:00,
2013-02-18 13:46:00,66.4,47.7,30.24,East,84,32.2,32.2,51,0.00,,OVC,0.00,WeatherDisplay:10.37,2013-02-18 18:46:00,
2013-02-18 13:51:00,66.3,48.1,30.24,East,80,24.2,24.2,52,0.00,,OVC,0.00,WeatherDisplay:10.37,2013-02-18 18:51:00,
2013-02-18 13:56:00,66.4,47.7,30.24,ENE,67,17.3,17.3,51,0.00,,OVC,0.00,WeatherDisplay:10.37,2013-02-18 18:56:00,
2013-02-18 14:01:00,67.1,47.8,30.23,ENE,69,8.1,8.1,50,0.00,,OVC,0.00,WeatherDisplay:10.37,2013-02-18 19:01:00,
2013-02-18 14:06:00,67.6,48.8,30.23,East,94,16.0,16.0,51,0.00,,OVC,0.00,WeatherDisplay:10.37,2013-02-18 19:06:00,
2013-02-18 14:11:00,67.4,48.1,30.23,ESE,119,18.4,18.4,50,0.00,,OVC,0.00,WeatherDisplay:10.37,2013-02-18 19:11:00,
2013-02-18 14:16:00,67.4,48.1,30.23,ENE,69,31.1,31.1,50,0.00,,OVC,0.00,WeatherDisplay:10.37,2013-02-18 19:16:00,
2013-02-18 14:21:00,67.1,48.9,30.23,NE,40,24.2,24.2,52,0.00,,OVC,0.00,WeatherDisplay:10.37,2013-02-18 19:21:00,
2013-02-18 14:26:00,67.1,48.4,30.23,ESE,116,12.7,12.7,51,0.00,,OVC,0.00,WeatherDisplay:10.37,2013-02-18 19:26:00,
2013-02-18 14:31:00,67.4,48.1,30.22,ENE,65,14.0,14.0,50,0.00,,OVC,0.00,WeatherDisplay:10.37,2013-02-18 19:31:00,
2013-02-18 14:36:00,67.8,49.5,30.22,North,355,10.4,10.4,52,0.00,,OVC,0.00,WeatherDisplay:10.37,2013-02-18 19:36:00,
2013-02-18 14:41:00,67.9,48.6,30.22,North,11,26.5,26.5,50,0.00,,OVC,0.00,WeatherDisplay:10.37,2013-02-18 19:41:00,
2013-02-18 14:46:00,67.6,48.8,30.21,East,100,16.1,16.1,51,0.00,,OVC,0.00,WeatherDisplay:10.37,2013-02-18 19:46:00,
2013-02-18 14:51:00,67.6,49.9,30.21,ENE,71,15.0,15.0,53,0.00,,OVC,0.00,WeatherDisplay:10.37,2013-02-18 19:51:00,
2013-02-18 14:56:00,67.4,49.7,30.21,NE,43,27.6,27.6,53,0.00,,OVC,0.00,WeatherDisplay:10.37,2013-02-18 19:56:00,
2013-02-18 15:01:00,67.8,49.5,30.21,ENE,71,16.1,16.1,52,0.00,,OVC,0.00,WeatherDisplay:10.37,2013-02-18 20:01:00,
2013-02-18 15:06:00,67.8,50.0,30.21,ENE,76,26.5,26.5,53,0.00,,OVC,0.00,WeatherDisplay:10.37,2013-02-18 20:06:00,
2013-02-18 15:11:00,67.8,50.0,30.21,ENE,61,25.3,25.3,53,0.00,,OVC,0.00,WeatherDisplay:10.37,2013-02-18 20:11:00,
2013-02-18 15:16:00,67.1,49.4,30.20,East,101,26.5,26.5,53,0.00,,OVC,0.00,WeatherDisplay:10.37,2013-02-18 20:16:00,
2013-02-18 15:22:00,66.8,49.6,30.20,ENE,59,11.5,11.5,54,0.00,,OVC,0.00,WeatherDisplay:10.37,2013-02-18 20:22:00,
2013-02-18 15:27:00,66.9,49.7,30.20,ENE,74,11.5,11.5,54,0.00,,OVC,0.00,WeatherDisplay:10.37,2013-02-18 20:27:00,
2013-02-18 15:32:00,67.3,49.6,30.20,East,83,32.0,32.0,53,0.00,,OVC,0.00,WeatherDisplay:10.37,2013-02-18 20:32:00,
2013-02-18 15:37:00,66.9,49.7,30.20,ENE,71,26.5,26.5,54,0.00,,OVC,0.00,WeatherDisplay:10.37,2013-02-18 20:37:00,
2013-02-18 15:42:00,66.8,49.6,30.20,NE,43,17.3,17.3,54,0.00,,OVC,0.00,WeatherDisplay:10.37,2013-02-18 20:42:00,
2013-02-18 15:47:00,66.9,49.7,30.20,ENE,61,31.0,31.0,54,0.00,,OVC,0.00,WeatherDisplay:10.37,2013-02-18 20:47:00,
2013-02-18 15:52:00,67.4,50.2,30.20,ESE,117,36.8,36.8,54,0.00,,OVC,0.00,WeatherDisplay:10.37,2013-02-18 20:52:00,
2013-02-18 15:58:00,67.3,50.6,30.20,ENE,69,23.0,23.0,55,0.00,,OVC,0.00,WeatherDisplay:10.37,2013-02-18 20:58:00,
2013-02-18 16:03:00,67.1,49.9,30.20,NE,51,24.2,24.2,54,0.00,,OVC,0.00,WeatherDisplay:10.37,2013-02-18 21:03:00,
2013-02-18 16:08:00,67.1,49.9,30.20,ENE,62,12.7,12.7,54,0.00,,OVC,0.00,WeatherDisplay:10.37,2013-02-18 21:08:00,
2013-02-18 16:13:00,67.1,49.9,30.20,East,92,24.2,24.2,54,0.00,,OVC,0.00,WeatherDisplay:10.37,2013-02-18 21:13:00,
2013-02-18 16:18:00,66.9,50.2,30.20,SE,126,10.4,10.4,55,0.00,,OVC,0.00,WeatherDisplay:10.37,2013-02-18 21:18:00,
2013-02-18 16:23:00,67.1,50.4,30.20,SSE,161,11.5,11.5,55,0.00,,OVC,0.00,WeatherDisplay:10.37,2013-02-18 21:23:00,
2013-02-18 16:28:00,67.3,50.6,30.20,East,88,3.5,3.5,55,0.00,,OVC,0.00,WeatherDisplay:10.37,2013-02-18 21:28:00,
2013-02-18 16:33:00,67.3,50.1,30.20,East,99,29.9,29.9,54,0.00,,OVC,0.00,WeatherDisplay:10.37,2013-02-18 21:33:00,
2013-02-18 16:38:00,66.9,50.2,30.20,ENE,64,9.2,9.2,55,0.00,,OVC,0.00,WeatherDisplay:10.37,2013-02-18 21:38:00,
2013-02-18 16:43:00,66.9,50.7,30.20,NE,47,21.9,21.9,56,0.00,,OVC,0.00,WeatherDisplay:10.37,2013-02-18 21:43:00,
2013-02-18 16:48:00,66.9,50.7,30.20,ENE,65,3.5,3.5,56,0.00,,OVC,0.00,WeatherDisplay:10.37,2013-02-18 21:48:00,
2013-02-18 16:53:00,66.9,50.7,30.20,ENE,74,23.0,23.0,56,0.00,,OVC,0.00,WeatherDisplay:10.37,2013-02-18 21:53:00,
2013-02-18 16:58:00,66.9,50.7,30.20,ESE,115,0.0,0.0,56,0.00,,OVC,0.00,WeatherDisplay:10.37,2013-02-18 21:58:00,
2013-02-18 17:03:00,67.1,50.9,30.20,ENE,61,12.7,12.7,56,0.00,,OVC,0.00,WeatherDisplay:10.37,2013-02-18 22:03:00,
2013-02-18 17:08:00,67.1,50.4,30.20,East,94,24.2,24.2,55,0.00,,OVC,0.00,WeatherDisplay:10.37,2013-02-18 22:08:00,
2013-02-18 17:13:00,66.9,50.7,30.21,East,79,11.5,11.5,56,0.00,,OVC,0.00,WeatherDisplay:10.37,2013-02-18 22:13:00,
2013-02-18 17:18:00,66.9,50.7,30.21,ENE,70,11.5,0.0,56,0.00,,OVC,0.00,WeatherDisplay:10.37,2013-02-18 22:18:00,
2013-02-18 17:23:00,66.9,50.7,30.21,ENE,67,13.0,13.0,56,0.00,,OVC,0.00,WeatherDisplay:10.37,2013-02-18 22:23:00,
2013-02-18 17:28:00,66.8,50.6,30.21,ENE,71,6.9,6.9,56,0.00,,OVC,0.00,WeatherDisplay:10.37,2013-02-18 22:28:00,
2013-02-18 17:33:00,66.8,51.1,30.21,NE,50,10.4,10.4,57,0.00,,OVC,0.00,WeatherDisplay:10.37,2013-02-18 22:33:00,
2013-02-18 17:38:00,66.6,50.9,30.21,ENE,69,13.8,13.8,57,0.00,,OVC,0.00,WeatherDisplay:10.37,2013-02-18 22:38:00,
2013-02-18 17:43:00,66.6,50.9,30.21,ENE,73,0.0,0.0,57,0.00,,OVC,0.00,WeatherDisplay:10.37,2013-02-18 22:43:00,
2013-02-18 17:48:00,66.6,52.3,30.21,ENE,64,17.3,17.3,60,0.00,,OVC,0.00,WeatherDisplay:10.37,2013-02-18 22:48:00,
2013-02-18 17:54:00,66.4,50.7,30.21,East,94,19.6,19.6,57,0.00,,OVC,0.00,WeatherDisplay:10.37,2013-02-18 22:54:00,
2013-02-18 17:59:00,66.4,50.7,30.20,NE,40,3.5,3.5,57,0.00,,OVC,0.00,WeatherDisplay:10.37,2013-02-18 22:59:00,
2013-02-18 18:04:00,66.4,51.2,30.20,NE,44,0.0,0.0,58,0.00,,OVC,0.00,WeatherDisplay:10.37,2013-02-18 23:04:00,
2013-02-18 18:09:00,66.3,50.6,30.20,ENE,61,0.0,0.0,57,0.00,,OVC,0.00,WeatherDisplay:10.37,2013-02-18 23:09:00,
2013-02-18 18:14:00,66.3,50.6,30.20,East,101,13.8,13.8,57,0.00,,OVC,0.00,WeatherDisplay:10.37,2013-02-18 23:14:00,
2013-02-18 18:19:00,66.3,51.1,30.20,East,101,0.0,0.0,58,0.00,,OVC,0.00,WeatherDisplay:10.37,2013-02-18 23:19:00,
2013-02-18 18:24:00,66.3,51.1,30.20,NE,39,0.0,0.0,58,0.00,,OVC,0.00,WeatherDisplay:10.37,2013-02-18 23:24:00,
2013-02-18 18:29:00,66.3,51.1,30.20,East,89,0.0,0.0,58,0.00,,OVC,0.00,WeatherDisplay:10.37,2013-02-18 23:29:00,
2013-02-18 18:34:00,66.3,51.1,30.20,SE,134,1.0,1.0,58,0.00,,OVC,0.00,WeatherDisplay:10.37,2013-02-18 23:34:00,
2013-02-18 18:39:00,66.1,50.9,30.20,ENE,72,0.0,0.0,58,0.00,,OVC,0.00,WeatherDisplay:10.37,2013-02-18 23:39:00,
2013-02-18 18:44:00,66.1,50.9,30.20,ENE,74,11.5,11.5,58,0.00,,OVC,0.00,WeatherDisplay:10.37,2013-02-18 23:44:00,
2013-02-18 18:49:00,66.1,50.9,30.20,ENE,69,0.0,0.0,58,0.00,,OVC,0.00,WeatherDisplay:10.37,2013-02-18 23:49:00,
2013-02-18 18:54:00,66.0,51.3,30.20,ENE,76,9.2,9.2,59,0.00,,OVC,0.00,WeatherDisplay:10.37,2013-02-18 23:54:00,
2013-02-18 18:59:00,66.0,51.3,30.20,ENE,69,4.0,4.0,59,0.00,,OVC,0.00,WeatherDisplay:10.37,2013-02-18 23:59:00,
2013-02-18 19:04:00,66.0,51.3,30.20,ENE,57,0.0,0.0,59,0.00,,OVC,0.00,WeatherDisplay:10.37,2013-02-19 00:04:00,
2013-02-18 19:09:00,66.1,51.8,30.20,SE,140,0.0,0.0,60,0.00,,OVC,0.00,WeatherDisplay:10.37,2013-02-19 00:09:00,
2013-02-18 19:14:00,66.1,51.8,30.20,East,79,2.3,0.0,60,0.00,,OVC,0.00,WeatherDisplay:10.37,2013-02-19 00:14:00,
2013-02-18 19:19:00,66.0,51.7,30.20,ENE,67,5.0,5.0,60,0.00,,OVC,0.00,WeatherDisplay:10.37,2013-02-19 00:19:00,
2013-02-18 19:24:00,66.0,51.7,30.20,ENE,58,0.0,0.1,60,0.00,,OVC,0.00,WeatherDisplay:10.37,2013-02-19 00:24:00,
2013-02-18 19:29:00,66.1,51.8,30.20,ENE,58,3.5,3.5,60,0.00,,OVC,0.00,WeatherDisplay:10.37,2013-02-19 00:29:00,
2013-02-18 19:34:00,66.1,51.8,30.20,ESE,115,4.6,4.6,60,0.00,,OVC,0.00,WeatherDisplay:10.37,2013-02-19 00:34:00,
2013-02-18 19:39:00,66.1,51.8,30.20,NNE,16,18.4,18.4,60,0.00,,OVC,0.00,WeatherDisplay:10.37,2013-02-19 00:39:00,
2013-02-18 19:44:00,66.3,52.0,30.20,ENE,66,0.0,0.0,60,0.00,,OVC,0.00,WeatherDisplay:10.37,2013-02-19 00:44:00,
2013-02-18 19:49:00,66.3,52.0,30.20,East,86,3.5,3.5,60,0.00,,OVC,0.00,WeatherDisplay:10.37,2013-02-19 00:49:00,
2013-02-18 19:54:00,66.1,51.8,30.20,East,98,0.0,0.0,60,0.00,,OVC,0.00,WeatherDisplay:10.37,2013-02-19 00:54:00,
2013-02-18 20:00:00,66.0,51.7,30.20,ENE,75,6.9,6.9,60,0.00,,OVC,0.00,WeatherDisplay:10.37,2013-02-19 01:00:00,
2013-02-18 20:05:00,65.8,51.5,30.20,East,85,0.0,0.0,60,0.00,,OVC,0.00,WeatherDisplay:10.37,2013-02-19 01:05:00,
2013-02-18 20:10:00,65.8,52.0,30.20,ENE,61,8.1,8.1,61,0.00,,OVC,0.00,WeatherDisplay:10.37,2013-02-19 01:10:00,
2013-02-18 20:15:00,65.6,51.3,30.20,ENE,58,11.5,11.5,60,0.00,,OVC,0.00,WeatherDisplay:10.37,2013-02-19 01:15:00,
2013-02-18 20:20:00,65.6,51.8,30.20,ENE,61,4.6,4.6,61,0.00,,OVC,0.00,WeatherDisplay:10.37,2013-02-19 01:20:00,
2013-02-18 20:25:00,65.6,51.8,30.20,NE,55,0.0,0.0,61,0.00,,OVC,0.00,WeatherDisplay:10.37,2013-02-19 01:25:00,
2013-02-18 20:30:00,65.5,51.7,30.20,ENE,65,0.0,0.0,61,0.00,,OVC,0.00,WeatherDisplay:10.37,2013-02-19 01:30:00,
2013-02-18 20:35:00,65.3,51.9,30.20,SE,124,8.1,8.1,62,0.00,,OVC,0.00,WeatherDisplay:10.37,2013-02-19 01:35:00,
2013-02-18 20:40:00,65.3,51.9,30.20,NE,54,3.5,3.5,62,0.00,,OVC,0.00,WeatherDisplay:10.37,2013-02-19 01:40:00,
2013-02-18 20:45:00,65.5,52.1,30.20,ENE,69,13.8,13.8,62,0.00,,OVC,0.00,WeatherDisplay:10.37,2013-02-19 01:45:00,
2013-02-18 20:50:00,65.5,52.1,30.20,ENE,69,10.4,10.4,62,0.00,,OVC,0.00,WeatherDisplay:10.37,2013-02-19 01:50:00,
2013-02-18 20:55:00,65.5,52.6,30.20,ENE,63,0.0,0.0,63,0.00,,OVC,0.00,WeatherDisplay:10.37,2013-02-19 01:55:00,
2013-02-18 21:00:00,65.5,52.6,30.20,ENE,73,0.0,0.2,63,0.00,,OVC,0.00,WeatherDisplay:10.37,2013-02-19 02:00:00,
2013-02-18 21:05:00,65.5,52.6,30.20,ENE,63,0.0,0.0,63,0.00,,OVC,0.00,WeatherDisplay:10.37,2013-02-19 02:05:00,
2013-02-18 21:10:00,65.3,52.4,30.20,East,82,0.0,0.0,63,0.00,,OVC,0.00,WeatherDisplay:10.37,2013-02-19 02:10:00,
2013-02-18 21:15:00,65.5,52.6,30.19,ENE,68,11.5,11.5,63,0.00,,OVC,0.00,WeatherDisplay:10.37,2013-02-19 02:15:00,
2013-02-18 21:21:00,65.5,52.6,30.19,ENE,72,0.0,0.0,63,0.00,,OVC,0.00,WeatherDisplay:10.37,2013-02-19 02:21:00,
2013-02-18 21:26:00,65.6,52.7,30.19,ENE,70,8.1,8.1,63,0.00,,OVC,0.00,WeatherDisplay:10.37,2013-02-19 02:26:00,
2013-02-18 21:31:00,65.8,52.9,30.19,ESE,103,11.5,11.5,63,0.00,,OVC,0.00,WeatherDisplay:10.37,2013-02-19 02:31:00,
2013-02-18 21:36:00,66.0,52.6,30.19,ENE,67,6.9,6.9,62,0.00,,OVC,0.00,WeatherDisplay:10.37,2013-02-19 02:36:00,
2013-02-18 21:41:00,66.1,52.7,30.19,NE,55,4.6,4.6,62,0.00,,OVC,0.00,WeatherDisplay:10.37,2013-02-19 02:41:00,
2013-02-18 21:46:00,66.1,52.7,30.19,ENE,67,9.2,9.2,62,0.00,,OVC,0.00,WeatherDisplay:10.37,2013-02-19 02:46:00,
2013-02-18 21:51:00,66.3,52.9,30.19,ENE,68,11.5,11.5,62,0.00,,OVC,0.00,WeatherDisplay:10.37,2013-02-19 02:51:00,
2013-02-18 21:56:00,66.3,53.3,30.19,ENE,72,0.0,0.0,63,0.00,,OVC,0.00,WeatherDisplay:10.37,2013-02-19 02:56:00,
2013-02-18 22:02:00,66.3,53.3,30.19,East,84,0.0,0.0,63,0.00,,OVC,0.00,WeatherDisplay:10.37,2013-02-19 03:02:00,
2013-02-18 22:07:00,66.4,53.4,30.19,ENE,59,17.3,17.3,63,0.00,,OVC,0.00,WeatherDisplay:10.37,2013-02-19 03:07:00,
2013-02-18 22:12:00,66.4,53.4,30.19,ENE,67,11.5,11.5,63,0.00,,OVC,0.00,WeatherDisplay:10.37,2013-02-19 03:12:00,
2013-02-18 22:17:00,66.8,54.2,30.19,ENE,74,17.3,17.3,64,0.00,,OVC,0.00,WeatherDisplay:10.37,2013-02-19 03:17:00,
2013-02-18 22:22:00,66.8,54.2,30.19,ENE,63,11.5,11.5,64,0.00,,OVC,0.00,WeatherDisplay:10.37,2013-02-19 03:22:00,
2013-02-18 22:27:00,66.9,54.7,30.19,ENE,73,13.8,13.8,65,0.00,,OVC,0.00,WeatherDisplay:10.37,2013-02-19 03:27:00,
2013-02-18 22:32:00,66.9,54.7,30.19,ENE,59,11.0,11.0,65,0.00,,OVC,0.00,WeatherDisplay:10.37,2013-02-19 03:32:00,
2013-02-18 22:37:00,66.9,55.2,30.19,ENE,70,0.0,0.5,66,0.00,,OVC,0.00,WeatherDisplay:10.37,2013-02-19 03:37:00,
2013-02-18 22:42:00,67.1,55.4,30.19,ENE,58,13.8,13.8,66,0.00,,OVC,0.00,WeatherDisplay:10.37,2013-02-19 03:42:00,
2013-02-18 22:47:00,67.1,55.4,30.18,NE,54,0.0,0.0,66,0.00,,OVC,0.00,WeatherDisplay:10.37,2013-02-19 03:47:00,
2013-02-18 22:52:00,67.1,54.9,30.18,NE,51,0.0,0.0,65,0.00,,OVC,0.00,WeatherDisplay:10.37,2013-02-19 03:52:00,
2013-02-18 22:57:00,67.1,54.5,30.18,NNW,340,0.0,0.0,64,0.00,,OVC,0.00,WeatherDisplay:10.37,2013-02-19 03:57:00,
2013-02-18 23:02:00,67.1,54.5,30.18,NNE,28,5.0,5.0,64,0.00,,OVC,0.00,WeatherDisplay:10.37,2013-02-19 04:02:00,
2013-02-18 23:07:00,67.4,54.8,30.18,East,84,9.2,9.2,64,0.00,,OVC,0.00,WeatherDisplay:10.37,2013-02-19 04:07:00,
2013-02-18 23:12:00,67.4,54.8,30.18,ESE,105,0.0,0.5,64,0.00,,OVC,0.00,WeatherDisplay:10.37,2013-02-19 04:12:00,
2013-02-18 23:17:00,67.6,55.0,30.18,East,86,0.0,0.7,64,0.00,,OVC,0.00,WeatherDisplay:10.37,2013-02-19 04:17:00,
2013-02-18 23:22:00,67.6,55.0,30.18,ESE,113,8.1,8.1,64,0.00,,OVC,0.00,WeatherDisplay:10.37,2013-02-19 04:22:00,
2013-02-18 23:28:00,67.6,54.6,30.18,SE,134,0.0,0.0,63,0.00,,OVC,0.00,WeatherDisplay:10.37,2013-02-19 04:28:00,
2013-02-18 23:33:00,67.6,54.6,30.18,SE,136,0.0,0.0,63,0.00,,OVC,0.00,WeatherDisplay:10.37,2013-02-19 04:33:00,
2013-02-18 23:38:00,67.6,54.1,30.18,ESE,119,0.0,0.0,62,0.00,,OVC,0.00,WeatherDisplay:10.37,2013-02-19 04:38:00,
2013-02-18 23:43:00,67.4,53.9,30.18,ESE,119,0.0,0.0,62,0.00,,OVC,0.00,WeatherDisplay:10.37,2013-02-19 04:43:00,
2013-02-18 23:48:00,67.3,53.8,30.17,SE,128,6.9,6.9,62,0.00,,OVC,0.00,WeatherDisplay:10.37,2013-02-19 04:48:00,
2013-02-18 23:53:00,67.1,54.1,30.17,SE,132,8.1,8.1,63,0.00,,OVC,0.00,WeatherDisplay:10.37,2013-02-19 04:53:00,
2013-02-18 23:58:00,67.1,54.1,30.17,SE,132,6.9,6.9,63,0.00,,OVC,0.00,WeatherDisplay:10.37,2013-02-19 04:58:00,